KCKP

Cherokee County Regional Airport

Cherokee, Iowa, USA
METAR KCKP 191935Z AUTO 33013G22KT 10SM CLR 20/07 A2993 RMK AO2 T01950069
Observed Flight Rules
Oct-19 @ 19:35 UTC (35 minutes ago) Visual Flight Rules
Wind Visibility Clouds
330° at 13 knots
 Gusting to 22 knots
10 miles
  • Clear skies
Temperatures Readings
Current 20°C / 68°F
Dewpoint 7°C / 45°F
Humidity 43%
Altimeter 29.93" Hg
Pressure 1014 hPa
Elevation 374
METAR KCKP 191935Z AUTO 33013G22KT 10SM CLR 20/07 A2993 RMK AO2 T01950069
Observed Flight Rules
Oct-19 @ 19:35 UTC
(35 minutes ago)
VFR
Wind Visibility
330° at 13 knots
 Gusting to 22 knots
10 miles
Clouds
  • Clear skies
Temperature Dewpoint
20°C / 68°F 7°C / 45°F
Humidity Altimeter Pressure
43% 29.93" Hg 1014 hPa